Time;durP1;ratioP1;P1;durP2;ratioP2;P2;SDS_P1;SDS_P2;PMS_P1;PMS_P2;Temp;Humidity;BMP_temperature;BMP_pressure;BME280_temperature;BME280_humidity;BME280_pressure;Samples;Min_cycle;Max_cycle;Signal;HPM_P1;HPM_P2
2021/12/19 00:04:29;;;;;;;2.60;0.50;;;26.90;84.60;;;;;;5073621;28;20017;-55
2021/12/19 00:09:42;;;;;;;4.97;0.77;;;27.20;81.90;;;;;;5073964;28;20109;-59
2021/12/19 00:12:09;;;;;;;1.73;0.60;;;27.20;82.70;;;;;;5073619;28;20081;-56
2021/12/19 00:14:37;;;;;;;4.13;0.60;;;27.20;83.30;;;;;;5073418;28;20054;-56
2021/12/19 00:17:05;;;;;;;1.33;0.47;;;27.20;83.70;;;;;;5073198;28;20032;-61
2021/12/19 00:19:32;;;;;;;3.88;0.63;;;27.10;82.70;;;;;;5073463;28;20051;-61
2021/12/19 00:22:00;;;;;;;1.00;0.60;;;27.20;83.60;;;;;;5073316;28;20502;-56
2021/12/19 00:24:27;;;;;;;3.63;0.52;;;27.00;84.40;;;;;;5073053;28;20375;-61
2021/12/19 00:26:54;;;;;;;1.45;0.80;;;27.20;82.20;;;;;;5073040;28;20024;-58
2021/12/19 00:29:22;;;;;;;6.70;0.80;;;27.20;83.90;;;;;;5073126;28;20028;-62
2021/12/19 00:31:49;;;;;;;0.60;0.47;;;27.30;82.20;;;;;;5073030;28;20104;-58
2021/12/19 00:34:17;;;;;;;1.35;0.43;;;27.20;83.90;;;;;;5073359;28;20029;-56
2021/12/19 00:36:44;;;;;;;1.10;0.60;;;27.20;83.20;;;;;;5072707;28;20470;-60
2021/12/19 00:39:12;;;;;;;0.77;0.50;;;27.30;82.10;;;;;;5072913;28;20532;-58
2021/12/19 00:41:39;;;;;;;0.93;0.60;;;27.30;83.30;;;;;;5072798;28;20036;-59
2021/12/19 00:44:12;;;;;;;1.98;0.60;;;27.20;83.60;;;;;;5072959;28;20103;-52
2021/12/19 00:46:51;;;;;;;1.92;0.50;;;27.20;84.00;;;;;;5072784;28;20075;-60
2021/12/19 00:49:22;;;;;;;1.30;0.70;;;27.30;82.20;;;;;;5072928;28;20153;-58
2021/12/19 00:51:50;;;;;;;1.40;0.50;;;27.30;82.70;;;;;;5072878;28;20028;-59
2021/12/19 00:54:17;;;;;;;2.10;0.77;;;27.30;83.50;;;;;;5072475;28;20048;-60
2021/12/19 00:56:48;;;;;;;1.15;0.70;;;27.30;82.70;;;;;;5072584;28;20038;-53
2021/12/19 00:59:16;;;;;;;1.17;0.63;;;27.30;83.80;;;;;;5073034;28;20039;-59
2021/12/19 01:01:45;;;;;;;3.83;0.70;;;27.40;82.60;;;;;;5072867;28;20032;-59
2021/12/19 01:04:15;;;;;;;1.73;0.43;;;27.50;82.80;;;;;;5071511;28;20097;-59
2021/12/19 01:06:45;;;;;;;1.00;0.60;;;27.50;83.10;;;;;;5072968;28;20603;-55
2021/12/19 01:09:13;;;;;;;2.40;0.85;;;27.30;83.40;;;;;;5072914;28;20021;-60
2021/12/19 01:11:40;;;;;;;1.30;0.80;;;27.40;82.80;;;;;;5072887;28;20021;-58
2021/12/19 01:14:08;;;;;;;1.25;0.60;;;27.50;82.70;;;;;;5071181;28;20025;-57
2021/12/19 01:16:36;;;;;;;1.20;0.73;;;27.50;82.40;;;;;;5072939;28;20115;-58
2021/12/19 01:19:04;;;;;;;0.88;0.40;;;27.40;83.40;;;;;;5072861;28;20104;-60
2021/12/19 01:21:31;;;;;;;0.65;0.40;;;27.40;83.20;;;;;;5072845;28;20033;-59
2021/12/19 01:24:00;;;;;;;1.13;0.57;;;27.60;81.60;;;;;;5072289;28;20024;-60
2021/12/19 01:26:27;;;;;;;1.90;0.68;;;27.70;82.30;;;;;;5071361;28;20027;-56
2021/12/19 01:28:55;;;;;;;1.00;0.77;;;27.70;80.50;;;;;;5072334;28;20107;-58
2021/12/19 01:31:22;;;;;;;0.95;0.60;;;27.80;81.20;;;;;;5072149;28;20024;-60
2021/12/19 01:33:50;;;;;;;0.90;0.50;;;27.90;81.30;;;;;;5072141;28;20363;-59
2021/12/19 01:36:18;;;;;;;3.38;1.17;;;27.80;81.50;;;;;;5072372;28;20393;-57
2021/12/19 01:39:19;;;;;;;1.00;0.40;;;28.00;79.80;;;;;;5071956;28;20435;-55
2021/12/19 01:42:11;;;;;;;2.08;0.75;;;28.10;79.10;;;;;;5052556;28;20041;-59
2021/12/19 01:44:39;;;;;;;2.42;0.75;;;28.20;79.00;;;;;;5070440;28;20119;-57
2021/12/19 01:47:07;;;;;;;3.90;0.80;;;28.10;79.60;;;;;;5069949;28;20029;-56
2021/12/19 01:49:35;;;;;;;0.82;0.65;;;28.20;76.40;;;;;;5069886;28;20020;-59
2021/12/19 01:52:03;;;;;;;1.02;0.70;;;28.30;78.60;;;;;;5069580;28;20028;-59
2021/12/19 01:54:30;;;;;;;0.60;0.50;;;28.20;78.70;;;;;;5070135;28;20530;-54
2021/12/19 01:56:58;;;;;;;0.45;0.35;;;28.30;77.20;;;;;;5070045;28;20093;-58
2021/12/19 01:59:25;;;;;;;0.73;0.50;;;28.30;77.40;;;;;;5069756;28;20041;-61
2021/12/19 02:01:56;;;;;;;1.42;0.70;;;28.20;77.00;;;;;;5069100;28;20037;-57
2021/12/19 02:04:30;;;;;;;0.80;0.57;;;28.20;77.80;;;;;;5069520;28;20063;-56
2021/12/19 02:06:58;;;;;;;0.40;0.40;;;28.30;74.90;;;;;;5069725;28;20205;-53
2021/12/19 02:09:26;;;;;;;0.73;0.40;;;28.40;77.00;;;;;;5069575;28;20255;-60
2021/12/19 02:11:55;;;;;;;1.65;0.60;;;28.30;76.80;;;;;;5069261;28;20506;-58
2021/12/19 02:14:22;;;;;;;2.55;0.85;;;28.40;77.90;;;;;;5053156;28;20071;-56
2021/12/19 02:16:50;;;;;;;0.93;0.50;;;28.40;77.20;;;;;;5069641;28;20028;-59
2021/12/19 02:19:17;;;;;;;0.68;0.35;;;28.40;74.70;;;;;;5071051;28;20033;-57
2021/12/19 02:21:44;;;;;;;1.38;0.40;;;28.40;74.00;;;;;;5072209;28;20032;-55
2021/12/19 02:24:12;;;;;;;1.38;0.60;;;28.40;77.50;;;;;;5071554;28;20503;-58
2021/12/19 02:26:40;;;;;;;1.27;0.60;;;28.40;77.00;;;;;;5071421;28;20442;-54
2021/12/19 02:29:09;;;;;;;3.65;0.45;;;28.30;78.90;;;;;;5070574;28;20102;-55
2021/12/19 02:31:36;;;;;;;1.38;0.63;;;28.20;79.30;;;;;;5071826;28;20101;-58
2021/12/19 02:34:15;;;;;;;0.68;0.50;;;28.10;79.10;;;;;;5071617;28;20400;-54
2021/12/19 02:39:38;;;;;;;2.60;0.63;;;28.10;79.80;;;;;;5075439;28;20048;-55
2021/12/19 02:50:23;;;;;;;3.40;0.85;;;28.30;75.20;;;;;;5075224;28;20120;-58
2021/12/19 02:52:51;;;;;;;0.77;0.50;;;28.50;78.80;;;;;;5073237;28;20036;-61
2021/12/19 02:55:19;;;;;;;1.02;0.32;;;28.50;78.50;;;;;;5074750;28;20120;-59
2021/12/19 02:57:49;;;;;;;3.80;0.68;;;28.40;78.60;;;;;;5074657;28;20021;-53
2021/12/19 03:00:22;;;;;;;2.55;0.85;;;28.50;79.00;;;;;;5074551;28;20056;-58
2021/12/19 03:02:49;;;;;;;2.00;0.82;;;28.50;79.10;;;;;;5074771;28;20039;-59
2021/12/19 03:05:17;;;;;;;1.50;0.60;;;28.60;78.70;;;;;;5073897;28;20442;-58
2021/12/19 03:07:45;;;;;;;3.38;0.80;;;28.60;79.00;;;;;;5074657;28;20044;-52
2021/12/19 03:10:48;;;;;;;1.60;0.73;;;28.90;78.40;;;;;;5074413;28;20044;-59
2021/12/19 03:17:56;;;;;;;4.07;0.75;;;28.80;77.70;;;;;;5074550;28;20025;-59
2021/12/19 03:18:44;;;;;;;4.60;0.75;;;29.00;79.50;;;;;;5075108;28;20032;-53
2021/12/19 03:21:15;;;;;;;5.30;0.73;;;29.30;75.90;;;;;;5074725;28;20036;-56
2021/12/19 03:23:43;;;;;;;6.28;1.30;;;29.00;78.40;;;;;;5074731;28;20021;-59
2021/12/19 03:26:11;;;;;;;3.15;1.08;;;29.10;76.70;;;;;;5074228;28;20036;-60
2021/12/19 03:28:38;;;;;;;6.82;1.30;;;29.10;80.70;;;;;;5074910;28;20016;-60
2021/12/19 03:31:06;;;;;;;3.63;0.93;;;29.10;76.20;;;;;;5074473;28;20104;-56
2021/12/19 03:33:35;;;;;;;3.92;0.95;;;29.10;79.20;;;;;;5074822;28;20031;-57
2021/12/19 03:36:08;;;;;;;6.50;0.70;;;29.10;79.90;;;;;;5073648;28;20028;-59
2021/12/19 03:38:40;;;;;;;5.25;1.10;;;29.10;79.90;;;;;;5074081;28;20158;-52
2021/12/19 03:43:42;;;;;;;1.48;0.73;;;29.30;81.20;;;;;;5073971;28;20347;-58
2021/12/19 03:46:09;;;;;;;14.68;1.30;;;29.30;79.00;;;;;;5073466;28;20067;-58
2021/12/19 03:48:37;;;;;;;8.20;1.35;;;29.50;73.90;;;;;;5073315;28;20032;-60
2021/12/19 03:51:05;;;;;;;10.35;1.75;;;29.50;78.60;;;;;;5073809;28;20387;-52
2021/12/19 03:53:33;;;;;;;8.57;1.17;;;29.40;81.40;;;;;;5073227;28;20067;-60
2021/12/19 03:56:00;;;;;;;8.43;1.75;;;29.30;75.20;;;;;;5072157;28;20046;-55
2021/12/19 03:58:28;;;;;;;14.65;1.73;;;29.10;80.20;;;;;;5073659;28;20028;-58
2021/12/19 04:01:00;;;;;;;3.95;1.15;;;29.30;75.10;;;;;;5073551;28;20032;-57
2021/12/19 04:03:30;;;;;;;20.20;1.75;;;29.30;78.50;;;;;;5073162;28;20411;-62
2021/12/19 04:05:58;;;;;;;6.38;1.40;;;29.20;80.70;;;;;;5073252;28;20090;-58
2021/12/19 04:08:25;;;;;;;12.23;1.40;;;29.10;79.20;;;;;;5073558;28;20024;-57
2021/12/19 04:10:54;;;;;;;3.53;1.00;;;29.20;78.30;;;;;;5073520;28;20392;-58
2021/12/19 04:13:23;;;;;;;8.20;1.60;;;29.30;81.40;;;;;;5073366;28;20035;-60
2021/12/19 04:15:51;;;;;;;3.90;0.95;;;29.40;80.40;;;;;;5073261;28;20016;-61
2021/12/19 04:18:19;;;;;;;7.95;1.58;;;29.40;81.50;;;;;;5073592;28;20359;-60
2021/12/19 04:20:46;;;;;;;9.82;2.10;;;29.40;80.00;;;;;;5072071;28;20067;-57
2021/12/19 04:23:16;;;;;;;10.13;1.27;;;29.30;82.60;;;;;;5072272;28;20021;-62
2021/12/19 04:25:44;;;;;;;7.65;1.25;;;29.10;83.40;;;;;;5073201;28;20025;-59
2021/12/19 04:28:11;;;;;;;9.93;1.60;;;29.10;81.90;;;;;;5072861;28;20031;-55
2021/12/19 04:30:39;;;;;;;7.28;1.58;;;29.00;84.00;;;;;;5073164;28;20047;-59
2021/12/19 04:33:12;;;;;;;9.95;1.75;;;29.00;84.00;;;;;;5073338;28;20025;-60
2021/12/19 04:35:43;;;;;;;2.33;1.23;;;29.00;73.80;;;;;;5072670;28;20494;-58
2021/12/19 05:00:12;;;;;;;5.97;0.95;;;30.40;65.40;;;;;;5069224;28;20125;-58
2021/12/19 05:02:48;;;;;;;6.85;1.20;;;30.50;63.50;;;;;;5072568;28;20050;-58
2021/12/19 05:16:19;;;;;;;1.27;0.63;;;29.70;70.70;;;;;;5072672;28;20035;-53
2021/12/19 05:18:48;;;;;;;9.93;0.80;;;29.40;70.80;;;;;;5072789;28;20073;-59
2021/12/19 05:21:19;;;;;;;3.90;0.60;;;29.20;71.90;;;;;;5072230;28;20512;-56
2021/12/19 05:26:27;;;;;;;6.85;0.80;;;29.00;74.70;;;;;;5072486;28;20471;-60
2021/12/19 05:28:54;;;;;;;3.70;0.63;;;28.90;75.20;;;;;;5072473;28;20017;-58
2021/12/19 05:31:22;;;;;;;2.42;0.60;;;28.80;73.60;;;;;;5072522;28;20016;-62
2021/12/19 05:33:50;;;;;;;8.70;1.15;;;28.80;72.90;;;;;;5072417;28;20104;-61
2021/12/19 05:45:12;;;;;;;7.18;1.00;;;28.60;73.60;;;;;;5072297;28;20021;-61
2021/12/19 05:46:56;;;;;;;2.15;0.73;;;28.60;74.50;;;;;;5072310;28;20108;-60
2021/12/19 05:49:24;;;;;;;1.85;0.65;;;28.60;75.00;;;;;;5072356;28;20025;-58
2021/12/19 05:51:52;;;;;;;2.50;0.60;;;28.60;72.20;;;;;;5072244;28;20033;-53
2021/12/19 05:54:19;;;;;;;1.88;1.02;;;28.50;75.30;;;;;;5072306;28;20052;-61
2021/12/19 05:56:48;;;;;;;8.40;1.13;;;28.50;76.00;;;;;;5072374;28;20028;-55
2021/12/19 05:59:16;;;;;;;4.38;0.73;;;28.40;74.70;;;;;;5072289;28;20052;-58
2021/12/19 06:01:45;;;;;;;2.35;0.70;;;28.40;75.00;;;;;;5071831;28;20055;-58
2021/12/19 06:04:13;;;;;;;6.93;0.70;;;28.30;75.20;;;;;;5072091;28;20082;-59
2021/12/19 06:06:41;;;;;;;2.25;0.88;;;28.30;76.60;;;;;;5072208;28;20056;-59
2021/12/19 06:09:08;;;;;;;1.60;0.57;;;28.30;74.70;;;;;;5072229;28;20021;-55
2021/12/19 06:11:36;;;;;;;2.10;0.55;;;28.30;74.50;;;;;;5072360;28;20055;-62
2021/12/19 06:14:03;;;;;;;2.25;0.63;;;28.20;74.30;;;;;;5075661;28;20031;-59
2021/12/19 06:16:31;;;;;;;3.03;0.85;;;28.10;76.80;;;;;;5076087;28;20020;-60
2021/12/19 06:18:58;;;;;;;1.98;0.75;;;28.00;78.60;;;;;;5074322;28;20463;-61
2021/12/19 06:21:27;;;;;;;2.45;1.02;;;27.90;78.60;;;;;;5075668;28;20119;-60
2021/12/19 06:23:55;;;;;;;1.70;0.70;;;27.90;74.90;;;;;;5075508;28;20023;-61
2021/12/19 06:26:23;;;;;;;4.35;0.50;;;27.90;78.80;;;;;;5075666;28;20020;-59
2021/12/19 06:28:50;;;;;;;1.52;0.68;;;27.70;79.50;;;;;;5075953;28;20540;-61
2021/12/19 06:31:18;;;;;;;2.88;0.77;;;27.60;77.80;;;;;;5075930;28;20367;-61
2021/12/19 06:33:45;;;;;;;1.08;0.57;;;27.60;77.90;;;;;;5075654;28;20024;-59
2021/12/19 06:36:13;;;;;;;2.00;0.60;;;27.50;79.60;;;;;;5075485;28;20402;-56
2021/12/19 06:38:40;;;;;;;2.35;0.60;;;27.50;78.60;;;;;;5075621;28;20356;-51
2021/12/19 06:41:07;;;;;;;1.95;0.70;;;27.40;79.30;;;;;;5075684;28;20390;-59
2021/12/19 06:43:35;;;;;;;2.75;0.73;;;27.40;79.00;;;;;;5076123;28;20436;-54
2021/12/19 06:46:03;;;;;;;2.15;0.50;;;27.30;80.00;;;;;;5075127;28;20056;-62
2021/12/19 06:48:30;;;;;;;1.80;0.60;;;27.20;80.20;;;;;;5075840;28;20028;-59
2021/12/19 06:51:00;;;;;;;5.28;0.60;;;27.20;80.80;;;;;;5075971;28;20100;-57
2021/12/19 06:53:29;;;;;;;1.13;0.50;;;27.10;80.40;;;;;;5075368;28;20052;-61
2021/12/19 06:55:58;;;;;;;4.50;0.80;;;27.10;80.40;;;;;;5074947;28;20025;-61
2021/12/19 06:58:27;;;;;;;2.13;0.70;;;27.00;80.00;;;;;;5075266;28;20147;-62
2021/12/19 07:00:55;;;;;;;1.13;0.73;;;27.00;77.90;;;;;;5073502;28;20486;-60
2021/12/19 07:03:24;;;;;;;4.68;0.77;;;27.00;77.90;;;;;;5074155;28;20393;-61
2021/12/19 07:05:52;;;;;;;2.95;0.77;;;27.00;78.50;;;;;;5073949;28;20036;-60
2021/12/19 07:08:21;;;;;;;1.63;0.40;;;27.00;78.50;;;;;;5074999;28;20021;-60
2021/12/19 07:10:49;;;;;;;2.00;0.60;;;26.90;80.80;;;;;;5073949;28;20112;-56
2021/12/19 07:13:20;;;;;;;2.80;0.88;;;26.90;80.50;;;;;;5075247;28;20051;-59
2021/12/19 07:15:51;;;;;;;1.25;1.15;;;26.90;78.90;;;;;;5074831;28;20467;-60
2021/12/19 07:18:18;;;;;;;;;;;26.90;76.70;;;;;;5075463;28;20043;-62
2021/12/19 07:20:46;;;;;;;4.78;0.93;;;26.90;78.90;;;;;;5075078;28;20369;-58
2021/12/19 07:23:16;;;;;;;3.38;0.60;;;26.90;78.20;;;;;;5072928;28;20029;-57
2021/12/19 07:25:43;;;;;;;2.28;1.13;;;26.90;80.10;;;;;;5074715;28;20020;-57
2021/12/19 07:28:12;;;;;;;2.33;0.77;;;26.90;75.20;;;;;;5074512;28;20044;-51
2021/12/19 07:30:40;;;;;;;2.95;0.52;;;26.80;79.30;;;;;;5074500;28;20020;-58
2021/12/19 07:33:09;;;;;;;0.80;0.50;;;26.80;80.00;;;;;;5073988;28;20047;-60
2021/12/19 07:35:40;;;;;;;1.02;0.57;;;26.80;80.00;;;;;;5073147;28;20024;-60
2021/12/19 07:38:10;;;;;;;1.85;0.80;;;26.80;80.00;;;;;;5074191;28;20021;-60
2021/12/19 07:40:39;;;;;;;1.90;0.80;;;26.80;77.80;;;;;;5074087;28;20040;-57
2021/12/19 07:43:10;;;;;;;1.58;0.57;;;26.80;79.30;;;;;;5074328;28;20094;-59
2021/12/19 07:45:38;;;;;;;2.23;0.77;;;26.80;79.50;;;;;;5073952;28;20024;-60
2021/12/19 07:48:05;;;;;;;1.00;0.50;;;26.80;80.20;;;;;;5074029;28;20086;-62
2021/12/19 07:50:33;;;;;;;2.15;0.77;;;26.70;80.10;;;;;;5074359;28;20038;-60
2021/12/19 07:53:01;;;;;;;2.17;0.70;;;26.70;80.70;;;;;;5073868;28;20062;-62
2021/12/19 07:55:29;;;;;;;0.90;0.45;;;26.60;80.50;;;;;;5073971;28;20414;-61
2021/12/19 07:57:56;;;;;;;0.82;0.57;;;26.60;80.80;;;;;;5073448;28;20029;-61
2021/12/19 08:00:24;;;;;;;1.10;0.75;;;26.50;80.80;;;;;;5073752;28;20055;-60
2021/12/19 08:02:51;;;;;;;1.98;0.80;;;26.50;79.70;;;;;;5073011;28;20033;-60
2021/12/19 08:05:21;;;;;;;2.45;1.10;;;26.50;81.20;;;;;;5074097;28;20029;-61
2021/12/19 08:07:55;;;;;;;0.70;0.52;;;26.50;81.30;;;;;;5073051;28;20033;-57
2021/12/19 08:12:50;;;;;;;2.40;1.10;;;26.40;81.90;;;;;;5074096;28;20029;-60
2021/12/19 08:15:17;;;;;;;0.70;0.50;;;26.30;82.00;;;;;;5073681;28;20463;-61
2021/12/19 08:17:45;;;;;;;3.35;0.98;;;26.30;82.40;;;;;;5073565;28;20037;-61
2021/12/19 08:20:14;;;;;;;2.40;1.02;;;26.30;81.20;;;;;;5073377;28;20027;-62
2021/12/19 08:22:42;;;;;;;3.40;0.50;;;26.30;81.90;;;;;;5072555;28;20360;-58
2021/12/19 08:25:10;;;;;;;1.25;0.90;;;26.30;81.80;;;;;;5073535;28;20103;-62
2021/12/19 08:27:37;;;;;;;0.93;0.60;;;26.30;78.70;;;;;;5073785;28;20027;-61
2021/12/19 08:30:08;;;;;;;3.55;0.73;;;26.30;81.50;;;;;;5073036;28;20025;-61
2021/12/19 08:32:36;;;;;;;1.58;0.82;;;26.20;80.60;;;;;;5073502;28;20028;-62
2021/12/19 08:35:06;;;;;;;0.88;0.40;;;26.20;81.50;;;;;;5072115;28;20040;-60
2021/12/19 08:37:34;;;;;;;1.45;0.80;;;26.20;79.40;;;;;;5072196;28;20039;-62
2021/12/19 08:40:03;;;;;;;0.55;0.55;;;26.20;81.40;;;;;;5072059;28;20025;-61
2021/12/19 08:42:32;;;;;;;2.47;0.70;;;26.20;81.50;;;;;;5073142;28;20362;-58
2021/12/19 08:44:59;;;;;;;1.13;0.55;;;26.20;80.90;;;;;;5073147;28;20024;-62
2021/12/19 08:47:27;;;;;;;0.60;0.40;;;26.10;80.40;;;;;;5071792;28;20035;-63
2021/12/19 08:49:54;;;;;;;2.47;0.70;;;26.10;81.20;;;;;;5073009;28;20025;-60
2021/12/19 08:52:22;;;;;;;1.85;0.63;;;26.10;79.10;;;;;;5072871;28;20024;-58
2021/12/19 08:54:49;;;;;;;0.93;0.60;;;26.10;81.80;;;;;;5073093;28;20044;-55
2021/12/19 08:57:16;;;;;;;2.85;0.73;;;26.00;82.60;;;;;;5073345;28;20048;-61
2021/12/19 08:59:44;;;;;;;1.85;0.57;;;26.00;82.70;;;;;;5072925;28;20020;-60
2021/12/19 09:02:11;;;;;;;0.45;0.40;;;26.00;81.40;;;;;;5072904;28;20043;-60
2021/12/19 09:04:39;;;;;;;0.93;0.40;;;25.90;80.60;;;;;;5073037;28;20029;-60
2021/12/19 09:07:06;;;;;;;1.20;0.60;;;25.90;80.40;;;;;;5073122;28;20032;-60
2021/12/19 09:09:34;;;;;;;0.55;0.47;;;25.90;82.50;;;;;;5073124;28;20020;-54
2021/12/19 09:12:01;;;;;;;1.38;0.70;;;25.90;82.80;;;;;;5072822;28;20486;-60
2021/12/19 09:14:29;;;;;;;1.45;0.57;;;25.80;83.00;;;;;;5072616;28;20081;-53
2021/12/19 09:16:56;;;;;;;0.60;0.40;;;25.80;82.60;;;;;;5072739;28;20436;-58
2021/12/19 09:19:26;;;;;;;1.85;0.60;;;25.80;83.50;;;;;;5073351;28;20097;-62
2021/12/19 09:21:57;;;;;;;0.75;0.52;;;25.80;83.40;;;;;;5072204;28;20499;-65
2021/12/19 09:24:24;;;;;;;0.80;0.50;;;25.70;83.10;;;;;;5073063;28;20024;-60
2021/12/19 09:26:52;;;;;;;4.28;0.70;;;25.70;83.10;;;;;;5072836;28;20038;-56
2021/12/19 09:29:19;;;;;;;1.15;0.77;;;25.60;83.10;;;;;;5072653;28;20027;-58
2021/12/19 09:31:47;;;;;;;1.63;0.70;;;25.60;83.80;;;;;;5072680;28;20054;-59
2021/12/19 09:34:17;;;;;;;0.60;0.60;;;25.60;83.90;;;;;;5072497;28;20017;-59
2021/12/19 09:36:44;;;;;;;1.40;0.70;;;25.50;84.00;;;;;;5072742;28;20136;-61
2021/12/19 09:39:12;;;;;;;2.80;1.30;;;25.50;83.70;;;;;;5072660;28;20028;-60
2021/12/19 09:41:44;;;;;;;1.35;0.90;;;25.50;83.40;;;;;;5072592;28;20032;-61
2021/12/19 09:44:14;;;;;;;2.25;0.60;;;25.50;84.40;;;;;;5072251;28;20277;-59
2021/12/19 09:46:44;;;;;;;0.95;0.68;;;25.50;84.20;;;;;;5073116;28;20056;-57
2021/12/19 09:49:14;;;;;;;1.00;0.50;;;25.40;84.60;;;;;;5076610;28;20056;-57
2021/12/19 09:51:42;;;;;;;1.65;0.70;;;25.40;84.80;;;;;;5077136;28;20483;-60
2021/12/19 09:54:11;;;;;;;0.80;0.60;;;25.40;84.60;;;;;;5076482;28;20045;-62
2021/12/19 09:56:40;;;;;;;0.50;0.45;;;25.40;84.80;;;;;;5076651;28;20028;-61
2021/12/19 09:59:19;;;;;;;0.88;0.70;;;25.40;84.80;;;;;;5076348;28;20013;-60
2021/12/19 10:01:51;;;;;;;2.88;0.60;;;25.30;84.50;;;;;;5076435;28;20064;-59
2021/12/19 10:04:42;;;;;;;1.38;0.63;;;25.30;84.60;;;;;;5076463;28;20029;-56
2021/12/19 10:07:28;;;;;;;1.67;0.60;;;25.30;85.50;;;;;;5076459;28;20077;-61
2021/12/19 10:10:13;;;;;;;0.88;0.40;;;25.30;85.00;;;;;;5075866;28;20032;-62
2021/12/19 10:15:19;;;;;;;1.33;0.68;;;25.30;84.60;;;;;;5076108;28;20486;-60
2021/12/19 10:17:47;;;;;;;0.65;0.65;;;25.30;85.00;;;;;;5076048;28;20104;-58
2021/12/19 10:20:17;;;;;;;1.35;0.45;;;25.20;85.10;;;;;;5075710;28;20386;-62
2021/12/19 10:22:49;;;;;;;0.52;0.50;;;25.20;85.10;;;;;;5075841;28;20032;-60
2021/12/19 10:25:30;;;;;;;1.55;0.52;;;25.20;85.10;;;;;;5074870;28;20474;-58
2021/12/19 10:28:02;;;;;;;0.65;0.60;;;25.20;85.20;;;;;;5075578;28;20414;-62
2021/12/19 10:30:46;;;;;;;1.27;0.40;;;25.20;85.20;;;;;;5076185;28;20505;-59
2021/12/19 10:33:21;;;;;;;0.77;0.60;;;25.10;85.20;;;;;;5076022;28;20024;-61
2021/12/19 10:35:51;;;;;;;1.17;0.43;;;25.10;85.20;;;;;;5075864;28;20434;-60
2021/12/19 10:38:23;;;;;;;0.97;0.50;;;25.10;84.60;;;;;;5075475;28;20024;-60
2021/12/19 10:40:53;;;;;;;;;;;25.10;84.90;;;;;;5076393;28;20112;-56
2021/12/19 10:43:23;;;;;;;0.57;0.50;;;25.10;84.90;;;;;;5075568;28;20255;-59
2021/12/19 10:45:53;;;;;;;1.38;0.50;;;25.10;84.20;;;;;;5076023;28;20120;-59
2021/12/19 10:48:33;;;;;;;1.20;0.40;;;25.10;84.80;;;;;;5075590;28;20381;-61
2021/12/19 10:51:12;;;;;;;0.63;0.38;;;25.10;84.90;;;;;;5075620;28;20020;-55
2021/12/19 10:54:03;;;;;;;0.50;0.47;;;25.00;84.70;;;;;;5075150;28;20442;-59
2021/12/19 10:56:32;;;;;;;2.00;0.50;;;25.00;84.80;;;;;;5075514;28;20081;-61
2021/12/19 10:59:02;;;;;;;0.88;0.77;;;25.00;84.90;;;;;;5075195;28;20033;-61
2021/12/19 11:01:32;;;;;;;0.80;0.45;;;25.00;84.70;;;;;;5075515;28;20043;-61
2021/12/19 11:04:20;;;;;;;0.75;0.50;;;25.00;84.60;;;;;;5075168;28;20017;-57
2021/12/19 11:06:50;;;;;;;1.70;0.50;;;25.00;84.50;;;;;;5075280;28;20383;-60
2021/12/19 11:09:27;;;;;;;0.70;0.50;;;25.00;84.30;;;;;;5075180;28;20499;-61
2021/12/19 11:12:08;;;;;;;2.33;0.45;;;25.00;84.30;;;;;;5075035;28;20359;-59
2021/12/19 11:14:40;;;;;;;0.82;0.45;;;25.00;84.80;;;;;;5074999;28;20024;-60
2021/12/19 11:17:21;;;;;;;0.30;0.30;;;25.00;84.30;;;;;;5075346;28;20073;-57
2021/12/19 11:19:50;;;;;;;0.40;0.40;;;25.00;84.50;;;;;;5074997;28;20032;-58
2021/12/19 11:22:23;;;;;;;0.50;0.45;;;25.00;84.50;;;;;;5075003;28;20037;-61
2021/12/19 11:24:57;;;;;;;0.77;0.50;;;24.90;84.60;;;;;;5075439;28;20029;-57
2021/12/19 11:27:25;;;;;;;0.60;0.50;;;24.90;84.30;;;;;;5075194;28;20031;-61
2021/12/19 11:29:58;;;;;;;1.00;0.57;;;24.90;84.40;;;;;;5074828;28;20035;-61
2021/12/19 11:32:49;;;;;;;0.60;0.40;;;24.90;84.60;;;;;;5075012;28;20028;-58
2021/12/19 11:35:26;;;;;;;1.17;0.50;;;24.90;84.70;;;;;;5075365;28;20040;-58
2021/12/19 11:38:01;;;;;;;2.80;0.50;;;24.90;84.50;;;;;;5074556;28;20029;-55
2021/12/19 11:40:32;;;;;;;0.70;0.52;;;24.90;84.60;;;;;;5075011;28;20407;-60
2021/12/19 11:43:09;;;;;;;1.00;0.40;;;24.90;84.10;;;;;;5073549;28;20032;-60
2021/12/19 11:45:43;;;;;;;1.38;0.55;;;24.90;84.50;;;;;;5074623;28;20119;-62
2021/12/19 11:48:31;;;;;;;0.30;0.30;;;24.90;84.00;;;;;;5074413;28;20020;-60
2021/12/19 11:51:20;;;;;;;0.93;0.50;;;24.90;84.30;;;;;;5074620;28;20046;-53
2021/12/19 11:53:47;;;;;;;1.65;0.68;;;24.90;84.60;;;;;;5074535;28;20044;-62
2021/12/19 11:56:17;;;;;;;0.93;0.50;;;24.90;84.40;;;;;;5074740;28;20039;-61
2021/12/19 11:58:49;;;;;;;0.50;0.40;;;24.90;84.30;;;;;;5074749;28;20024;-60
2021/12/19 12:01:20;;;;;;;0.52;0.47;;;24.80;84.40;;;;;;5074208;28;20025;-62
2021/12/19 12:04:14;;;;;;;1.17;0.50;;;24.80;84.40;;;;;;5073429;28;20508;-60
2021/12/19 12:06:44;;;;;;;0.52;0.43;;;24.80;84.50;;;;;;5074688;28;20048;-62
2021/12/19 12:09:26;;;;;;;1.17;0.60;;;24.80;84.80;;;;;;5074271;28;20048;-59
2021/12/19 12:12:08;;;;;;;1.58;0.57;;;24.80;84.50;;;;;;5074027;28;20035;-61
2021/12/19 12:14:43;;;;;;;0.50;0.40;;;24.80;84.60;;;;;;5074359;28;20391;-59
2021/12/19 12:17:19;;;;;;;0.77;0.50;;;24.80;84.60;;;;;;5074176;28;20040;-60
2021/12/19 12:19:52;;;;;;;0.52;0.30;;;24.80;84.60;;;;;;5074005;28;20425;-60
2021/12/19 12:22:33;;;;;;;0.77;0.45;;;24.80;84.40;;;;;;5074127;28;20041;-56
2021/12/19 12:25:31;;;;;;;0.77;0.43;;;24.80;84.50;;;;;;5074415;28;20489;-61
2021/12/19 12:28:04;;;;;;;0.60;0.50;;;24.70;84.70;;;;;;5073462;28;20378;-60
2021/12/19 12:30:46;;;;;;;0.47;0.40;;;24.70;84.00;;;;;;5073684;28;20033;-56
2021/12/19 12:33:17;;;;;;;1.15;0.40;;;24.70;84.60;;;;;;5073811;28;20028;-58
2021/12/19 12:35:48;;;;;;;1.50;0.50;;;24.70;84.20;;;;;;5073505;28;20025;-60
2021/12/19 12:38:17;;;;;;;0.28;0.28;;;24.70;84.70;;;;;;5073688;28;20174;-59
2021/12/19 12:40:52;;;;;;;0.85;0.50;;;24.70;84.30;;;;;;5073387;28;20028;-60
2021/12/19 12:43:23;;;;;;;1.23;0.50;;;24.70;84.50;;;;;;5073560;28;20107;-61
2021/12/19 12:46:03;;;;;;;1.50;0.60;;;24.70;84.50;;;;;;5073549;28;20028;-58
2021/12/19 12:48:33;;;;;;;0.55;0.38;;;24.70;84.70;;;;;;5073514;28;20107;-62
2021/12/19 12:51:05;;;;;;;1.15;0.40;;;24.70;84.60;;;;;;5072367;28;20025;-61
2021/12/19 12:53:48;;;;;;;0.60;0.50;;;24.70;84.90;;;;;;5073336;28;20068;-57
2021/12/19 12:56:21;;;;;;;0.63;0.32;;;24.70;85.00;;;;;;5073385;28;20076;-62
2021/12/19 12:58:55;;;;;;;0.73;0.47;;;24.70;85.00;;;;;;5073308;28;20028;-61
2021/12/19 13:01:35;;;;;;;0.52;0.43;;;24.60;85.20;;;;;;5073420;28;20036;-60
2021/12/19 13:04:05;;;;;;;1.45;0.30;;;24.60;85.00;;;;;;5072958;28;20023;-60
2021/12/19 13:06:48;;;;;;;0.70;0.60;;;24.60;85.00;;;;;;5073038;28;20036;-61
2021/12/19 13:09:27;;;;;;;0.95;0.60;;;24.60;85.20;;;;;;5073468;28;20153;-61
2021/12/19 13:12:24;;;;;;;0.30;0.30;;;24.60;85.30;;;;;;5072757;28;20494;-60
2021/12/19 13:15:05;;;;;;;1.55;0.40;;;24.60;85.30;;;;;;5069859;28;20028;-59
2021/12/19 13:17:35;;;;;;;1.30;0.45;;;24.60;85.40;;;;;;5073212;28;20021;-54
2021/12/19 13:20:08;;;;;;;0.88;0.50;;;24.50;85.40;;;;;;5073044;28;20475;-60
2021/12/19 13:22:47;;;;;;;0.30;0.30;;;24.50;85.10;;;;;;5072198;28;20396;-61
2021/12/19 13:25:18;;;;;;;0.43;0.40;;;24.50;85.20;;;;;;5073006;28;20032;-62
2021/12/19 13:27:48;;;;;;;0.43;0.43;;;24.50;85.50;;;;;;5073053;28;20358;-61
2021/12/19 13:30:21;;;;;;;0.30;0.22;;;24.50;85.40;;;;;;5072638;28;20033;-59
2021/12/19 13:32:53;;;;;;;0.77;0.28;;;24.50;85.40;;;;;;5071564;28;20101;-59
2021/12/19 13:35:35;;;;;;;0.90;0.52;;;24.50;85.20;;;;;;5073035;28;20556;-62
2021/12/19 13:38:16;;;;;;;0.43;0.38;;;24.50;85.50;;;;;;5072831;28;20115;-60
2021/12/19 13:40:55;;;;;;;1.30;0.55;;;24.50;85.50;;;;;;5072973;28;20474;-60
2021/12/19 13:43:36;;;;;;;0.82;0.43;;;24.50;85.50;;;;;;5072728;28;20033;-60
2021/12/19 13:46:09;;;;;;;0.80;0.50;;;24.50;85.60;;;;;;5071468;28;20024;-62
2021/12/19 13:48:55;;;;;;;0.80;0.63;;;24.50;85.20;;;;;;5072863;28;20036;-60
2021/12/19 13:51:28;;;;;;;0.32;0.22;;;24.40;85.60;;;;;;5073174;28;20025;-60
2021/12/19 13:53:58;;;;;;;0.47;0.30;;;24.40;85.80;;;;;;5072374;28;20510;-61
2021/12/19 13:56:31;;;;;;;0.40;0.40;;;24.40;85.70;;;;;;5072995;28;20033;-58
2021/12/19 13:59:02;;;;;;;0.40;0.40;;;24.40;85.80;;;;;;5071601;28;20047;-61
2021/12/19 14:01:36;;;;;;;0.60;0.50;;;24.40;85.90;;;;;;5072747;28;20047;-59
2021/12/19 14:04:25;;;;;;;0.50;0.47;;;24.40;85.80;;;;;;5072408;28;20025;-61
2021/12/19 14:07:03;;;;;;;0.75;0.60;;;24.40;85.80;;;;;;5072414;28;20424;-59
2021/12/19 14:09:30;;;;;;;0.93;0.50;;;24.30;85.70;;;;;;5072863;28;20028;-61
2021/12/19 14:12:04;;;;;;;0.90;0.50;;;24.30;85.80;;;;;;5072481;28;20032;-60
2021/12/19 14:14:32;;;;;;;0.50;0.22;;;24.40;85.80;;;;;;5072653;28;20071;-60
2021/12/19 14:17:03;;;;;;;0.40;0.20;;;24.30;85.70;;;;;;5072522;28;20405;-60
2021/12/19 14:19:31;;;;;;;0.70;0.50;;;24.30;85.80;;;;;;5072591;28;20021;-61